sensor_id;sensor_type;location;lat;lon;timestamp;temperature;humidity
21815;DHT22;11069;48.988;8.450;2023-01-28T00:01:07;2.60;99.90
21815;DHT22;11069;48.988;8.450;2023-01-28T00:03:33;2.60;99.90
21815;DHT22;11069;48.988;8.450;2023-01-28T00:06:17;2.50;99.90
21815;DHT22;11069;48.988;8.450;2023-01-28T00:08:43;2.50;99.90
21815;DHT22;11069;48.988;8.450;2023-01-28T00:11:11;2.60;99.90
21815;DHT22;11069;48.988;8.450;2023-01-28T00:13:37;2.60;99.90
21815;DHT22;11069;48.988;8.450;2023-01-28T00:16:05;2.60;99.90
21815;DHT22;11069;48.988;8.450;2023-01-28T00:18:32;2.60;99.90
21815;DHT22;11069;48.988;8.450;2023-01-28T00:23:31;2.60;99.90
21815;DHT22;11069;48.988;8.450;2023-01-28T00:25:58;2.60;99.90
21815;DHT22;11069;48.988;8.450;2023-01-28T00:28:24;2.60;99.90
21815;DHT22;11069;48.988;8.450;2023-01-28T00:30:49;2.60;99.90
21815;DHT22;11069;48.988;8.450;2023-01-28T00:33:15;2.60;99.90
21815;DHT22;11069;48.988;8.450;2023-01-28T00:35:40;2.50;99.90
21815;DHT22;11069;48.988;8.450;2023-01-28T00:38:06;2.50;99.90
21815;DHT22;11069;48.988;8.450;2023-01-28T00:40:33;2.60;99.90
21815;DHT22;11069;48.988;8.450;2023-01-28T00:42:59;2.50;99.90
21815;DHT22;11069;48.988;8.450;2023-01-28T00:45:24;2.50;99.90
21815;DHT22;11069;48.988;8.450;2023-01-28T00:47:50;2.60;99.90
21815;DHT22;11069;48.988;8.450;2023-01-28T00:50:16;2.60;99.90
21815;DHT22;11069;48.988;8.450;2023-01-28T00:52:42;2.60;99.90
21815;DHT22;11069;48.988;8.450;2023-01-28T00:55:08;2.50;99.90
21815;DHT22;11069;48.988;8.450;2023-01-28T00:57:34;2.60;99.90
21815;DHT22;11069;48.988;8.450;2023-01-28T01:00:00;2.60;99.90
21815;DHT22;11069;48.988;8.450;2023-01-28T01:02:25;2.50;99.90
21815;DHT22;11069;48.988;8.450;2023-01-28T01:04:51;2.60;99.90
21815;DHT22;11069;48.988;8.450;2023-01-28T01:07:24;2.60;99.90
21815;DHT22;11069;48.988;8.450;2023-01-28T01:09:58;2.50;99.90
21815;DHT22;11069;48.988;8.450;2023-01-28T01:12:24;2.50;99.90
21815;DHT22;11069;48.988;8.450;2023-01-28T01:14:50;2.50;99.90
21815;DHT22;11069;48.988;8.450;2023-01-28T01:17:15;2.50;99.90
21815;DHT22;11069;48.988;8.450;2023-01-28T01:19:41;2.40;99.90
21815;DHT22;11069;48.988;8.450;2023-01-28T01:22:07;2.50;99.90
21815;DHT22;11069;48.988;8.450;2023-01-28T01:24:33;2.50;99.90
21815;DHT22;11069;48.988;8.450;2023-01-28T01:26:59;2.60;99.90
21815;DHT22;11069;48.988;8.450;2023-01-28T01:29:24;2.60;99.90
21815;DHT22;11069;48.988;8.450;2023-01-28T01:31:50;2.60;99.90
21815;DHT22;11069;48.988;8.450;2023-01-28T01:34:15;2.50;99.90
21815;DHT22;11069;48.988;8.450;2023-01-28T01:36:41;2.50;99.90
21815;DHT22;11069;48.988;8.450;2023-01-28T01:39:11;2.50;99.90
21815;DHT22;11069;48.988;8.450;2023-01-28T01:41:37;2.50;99.90
21815;DHT22;11069;48.988;8.450;2023-01-28T01:44:04;2.50;99.90
21815;DHT22;11069;48.988;8.450;2023-01-28T01:46:44;2.60;99.90
21815;DHT22;11069;48.988;8.450;2023-01-28T01:49:19;2.60;99.90
21815;DHT22;11069;48.988;8.450;2023-01-28T01:51:48;2.60;99.90
21815;DHT22;11069;48.988;8.450;2023-01-28T01:54:16;2.50;99.90
21815;DHT22;11069;48.988;8.450;2023-01-28T01:56:44;2.50;99.90
21815;DHT22;11069;48.988;8.450;2023-01-28T01:59:15;2.50;99.90
21815;DHT22;11069;48.988;8.450;2023-01-28T02:01:43;2.50;99.90
21815;DHT22;11069;48.988;8.450;2023-01-28T02:04:24;2.50;99.90
21815;DHT22;11069;48.988;8.450;2023-01-28T02:06:51;2.50;99.90
21815;DHT22;11069;48.988;8.450;2023-01-28T02:09:25;2.50;99.90
21815;DHT22;11069;48.988;8.450;2023-01-28T02:11:54;2.50;99.90
21815;DHT22;11069;48.988;8.450;2023-01-28T02:14:23;2.50;99.90
21815;DHT22;11069;48.988;8.450;2023-01-28T02:16:50;2.50;99.90
21815;DHT22;11069;48.988;8.450;2023-01-28T02:19:18;2.50;99.90
21815;DHT22;11069;48.988;8.450;2023-01-28T02:25:12;2.50;99.90
21815;DHT22;11069;48.988;8.450;2023-01-28T02:30:50;2.50;99.90
21815;DHT22;11069;48.988;8.450;2023-01-28T02:33:40;2.40;99.90
21815;DHT22;11069;48.988;8.450;2023-01-28T02:38:56;2.50;99.90
21815;DHT22;11069;48.988;8.450;2023-01-28T02:41:37;2.60;99.90
21815;DHT22;11069;48.988;8.450;2023-01-28T02:44:04;2.60;99.90
21815;DHT22;11069;48.988;8.450;2023-01-28T02:57:46;2.60;99.90
21815;DHT22;11069;48.988;8.450;2023-01-28T03:06:06;2.60;99.90
21815;DHT22;11069;48.988;8.450;2023-01-28T03:11:23;2.60;99.90
21815;DHT22;11069;48.988;8.450;2023-01-28T03:14:07;2.60;99.90
21815;DHT22;11069;48.988;8.450;2023-01-28T03:16:56;2.60;99.90
21815;DHT22;11069;48.988;8.450;2023-01-28T03:19:40;2.60;99.90
21815;DHT22;11069;48.988;8.450;2023-01-28T03:22:27;2.70;99.90
21815;DHT22;11069;48.988;8.450;2023-01-28T03:25:13;2.80;99.90
21815;DHT22;11069;48.988;8.450;2023-01-28T03:28:02;2.80;99.90
21815;DHT22;11069;48.988;8.450;2023-01-28T03:30:58;2.80;99.90
21815;DHT22;11069;48.988;8.450;2023-01-28T03:33:46;2.70;99.90
21815;DHT22;11069;48.988;8.450;2023-01-28T03:36:31;2.80;99.90
21815;DHT22;11069;48.988;8.450;2023-01-28T03:39:17;2.80;99.90
21815;DHT22;11069;48.988;8.450;2023-01-28T03:44:29;2.80;99.90
21815;DHT22;11069;48.988;8.450;2023-01-28T03:47:14;2.70;99.90
21815;DHT22;11069;48.988;8.450;2023-01-28T03:49:46;2.70;99.90
21815;DHT22;11069;48.988;8.450;2023-01-28T03:52:20;2.70;99.90
21815;DHT22;11069;48.988;8.450;2023-01-28T03:54:47;2.80;99.90
21815;DHT22;11069;48.988;8.450;2023-01-28T03:57:14;2.80;99.90
21815;DHT22;11069;48.988;8.450;2023-01-28T03:59:40;2.80;99.90
21815;DHT22;11069;48.988;8.450;2023-01-28T04:02:07;2.70;99.90
21815;DHT22;11069;48.988;8.450;2023-01-28T04:04:33;2.70;99.90
21815;DHT22;11069;48.988;8.450;2023-01-28T04:06:58;2.80;99.90
21815;DHT22;11069;48.988;8.450;2023-01-28T04:09:24;2.80;99.90
21815;DHT22;11069;48.988;8.450;2023-01-28T04:11:50;2.80;99.90
21815;DHT22;11069;48.988;8.450;2023-01-28T04:14:16;2.80;99.90
21815;DHT22;11069;48.988;8.450;2023-01-28T04:16:42;2.80;99.90
21815;DHT22;11069;48.988;8.450;2023-01-28T04:19:09;2.80;99.90
21815;DHT22;11069;48.988;8.450;2023-01-28T04:21:37;2.90;99.90
21815;DHT22;11069;48.988;8.450;2023-01-28T04:24:03;2.90;99.90
21815;DHT22;11069;48.988;8.450;2023-01-28T04:26:28;3.00;99.90
21815;DHT22;11069;48.988;8.450;2023-01-28T04:28:55;3.00;99.90
21815;DHT22;11069;48.988;8.450;2023-01-28T04:31:20;2.90;99.90
21815;DHT22;11069;48.988;8.450;2023-01-28T04:33:48;2.90;99.90
21815;DHT22;11069;48.988;8.450;2023-01-28T04:36:14;2.90;99.90
21815;DHT22;11069;48.988;8.450;2023-01-28T04:38:39;2.90;99.90
21815;DHT22;11069;48.988;8.450;2023-01-28T04:41:05;2.80;99.90
21815;DHT22;11069;48.988;8.450;2023-01-28T04:43:30;2.80;99.90
21815;DHT22;11069;48.988;8.450;2023-01-28T04:45:56;2.80;99.90
21815;DHT22;11069;48.988;8.450;2023-01-28T04:48:21;2.80;99.90
21815;DHT22;11069;48.988;8.450;2023-01-28T04:50:47;2.80;99.90
21815;DHT22;11069;48.988;8.450;2023-01-28T04:53:13;2.80;99.90
21815;DHT22;11069;48.988;8.450;2023-01-28T04:55:38;2.80;99.90
21815;DHT22;11069;48.988;8.450;2023-01-28T04:58:04;2.80;99.90
21815;DHT22;11069;48.988;8.450;2023-01-28T05:00:30;2.80;99.90
21815;DHT22;11069;48.988;8.450;2023-01-28T05:02:55;2.70;99.90
21815;DHT22;11069;48.988;8.450;2023-01-28T05:05:21;2.70;99.90
21815;DHT22;11069;48.988;8.450;2023-01-28T05:07:54;2.70;99.90
21815;DHT22;11069;48.988;8.450;2023-01-28T05:10:21;2.60;99.90
21815;DHT22;11069;48.988;8.450;2023-01-28T05:12:47;2.60;99.90
21815;DHT22;11069;48.988;8.450;2023-01-28T05:15:14;2.50;99.90
21815;DHT22;11069;48.988;8.450;2023-01-28T05:17:39;2.50;99.90
21815;DHT22;11069;48.988;8.450;2023-01-28T05:20:07;2.50;99.90
21815;DHT22;11069;48.988;8.450;2023-01-28T05:22:33;2.40;99.90
21815;DHT22;11069;48.988;8.450;2023-01-28T05:24:58;2.40;99.90
21815;DHT22;11069;48.988;8.450;2023-01-28T05:27:24;2.40;99.90
21815;DHT22;11069;48.988;8.450;2023-01-28T05:29:49;2.50;99.90
21815;DHT22;11069;48.988;8.450;2023-01-28T05:32:15;2.50;99.90
21815;DHT22;11069;48.988;8.450;2023-01-28T05:34:40;2.40;99.90
21815;DHT22;11069;48.988;8.450;2023-01-28T05:37:06;2.40;99.90
21815;DHT22;11069;48.988;8.450;2023-01-28T05:39:32;2.40;99.90
21815;DHT22;11069;48.988;8.450;2023-01-28T05:41:57;2.40;99.90
21815;DHT22;11069;48.988;8.450;2023-01-28T05:44:23;2.40;99.90
21815;DHT22;11069;48.988;8.450;2023-01-28T05:46:48;2.40;99.90
21815;DHT22;11069;48.988;8.450;2023-01-28T05:49:14;2.40;99.90
21815;DHT22;11069;48.988;8.450;2023-01-28T05:51:39;2.40;99.90
21815;DHT22;11069;48.988;8.450;2023-01-28T05:54:06;2.40;99.90
21815;DHT22;11069;48.988;8.450;2023-01-28T05:56:32;2.40;99.90
21815;DHT22;11069;48.988;8.450;2023-01-28T05:58:59;2.30;99.90
21815;DHT22;11069;48.988;8.450;2023-01-28T06:01:25;2.30;99.90
21815;DHT22;11069;48.988;8.450;2023-01-28T06:03:51;2.30;99.90
21815;DHT22;11069;48.988;8.450;2023-01-28T06:06:16;2.30;99.90
21815;DHT22;11069;48.988;8.450;2023-01-28T06:08:42;2.30;99.90
21815;DHT22;11069;48.988;8.450;2023-01-28T06:11:07;2.40;99.90
21815;DHT22;11069;48.988;8.450;2023-01-28T06:13:33;2.40;99.90
21815;DHT22;11069;48.988;8.450;2023-01-28T06:15:59;2.40;99.90
21815;DHT22;11069;48.988;8.450;2023-01-28T06:18:25;2.40;99.90
21815;DHT22;11069;48.988;8.450;2023-01-28T06:20:50;2.30;99.90
21815;DHT22;11069;48.988;8.450;2023-01-28T06:23:16;2.30;99.90
21815;DHT22;11069;48.988;8.450;2023-01-28T06:25:42;2.30;99.90
21815;DHT22;11069;48.988;8.450;2023-01-28T06:28:07;2.40;99.90
21815;DHT22;11069;48.988;8.450;2023-01-28T06:30:33;2.40;99.90
21815;DHT22;11069;48.988;8.450;2023-01-28T06:32:58;2.40;99.90
21815;DHT22;11069;48.988;8.450;2023-01-28T06:35:24;2.50;99.90
21815;DHT22;11069;48.988;8.450;2023-01-28T06:37:49;2.50;99.90
21815;DHT22;11069;48.988;8.450;2023-01-28T06:40:17;2.50;99.90
21815;DHT22;11069;48.988;8.450;2023-01-28T06:42:42;2.50;99.90
21815;DHT22;11069;48.988;8.450;2023-01-28T06:45:08;2.50;99.90
21815;DHT22;11069;48.988;8.450;2023-01-28T06:47:34;2.50;99.90
21815;DHT22;11069;48.988;8.450;2023-01-28T06:50:00;2.50;99.90
21815;DHT22;11069;48.988;8.450;2023-01-28T06:52:25;2.50;99.90
21815;DHT22;11069;48.988;8.450;2023-01-28T06:54:51;2.50;99.90
21815;DHT22;11069;48.988;8.450;2023-01-28T06:57:16;2.40;99.90
21815;DHT22;11069;48.988;8.450;2023-01-28T06:59:42;2.40;99.90
21815;DHT22;11069;48.988;8.450;2023-01-28T07:02:10;2.40;99.90
21815;DHT22;11069;48.988;8.450;2023-01-28T07:04:36;2.40;99.90
21815;DHT22;11069;48.988;8.450;2023-01-28T07:07:01;2.50;99.90
21815;DHT22;11069;48.988;8.450;2023-01-28T07:09:27;2.40;99.90
21815;DHT22;11069;48.988;8.450;2023-01-28T07:11:53;2.50;99.90
21815;DHT22;11069;48.988;8.450;2023-01-28T07:14:19;2.50;99.90
21815;DHT22;11069;48.988;8.450;2023-01-28T07:16:44;2.50;99.90
21815;DHT22;11069;48.988;8.450;2023-01-28T07:19:10;2.50;99.90
21815;DHT22;11069;48.988;8.450;2023-01-28T07:21:35;2.50;99.90
21815;DHT22;11069;48.988;8.450;2023-01-28T07:24:01;2.50;99.90
21815;DHT22;11069;48.988;8.450;2023-01-28T07:26:29;2.50;99.90
21815;DHT22;11069;48.988;8.450;2023-01-28T07:28:55;2.50;99.90
21815;DHT22;11069;48.988;8.450;2023-01-28T07:31:21;2.50;99.90
21815;DHT22;11069;48.988;8.450;2023-01-28T07:33:46;2.50;99.90
21815;DHT22;11069;48.988;8.450;2023-01-28T07:36:12;2.50;99.90
21815;DHT22;11069;48.988;8.450;2023-01-28T07:38:37;2.50;99.90
21815;DHT22;11069;48.988;8.450;2023-01-28T07:41:03;2.50;99.90
21815;DHT22;11069;48.988;8.450;2023-01-28T07:43:29;2.50;99.90
21815;DHT22;11069;48.988;8.450;2023-01-28T07:45:54;2.50;99.90
21815;DHT22;11069;48.988;8.450;2023-01-28T07:48:20;2.50;99.90
21815;DHT22;11069;48.988;8.450;2023-01-28T07:50:45;2.60;99.90
21815;DHT22;11069;48.988;8.450;2023-01-28T07:53:13;2.60;99.90
21815;DHT22;11069;48.988;8.450;2023-01-28T07:55:39;2.60;99.90
21815;DHT22;11069;48.988;8.450;2023-01-28T07:58:06;2.70;99.90
21815;DHT22;11069;48.988;8.450;2023-01-28T08:00:35;2.70;99.90
21815;DHT22;11069;48.988;8.450;2023-01-28T08:03:06;2.70;99.90
21815;DHT22;11069;48.988;8.450;2023-01-28T08:05:43;2.70;99.90
21815;DHT22;11069;48.988;8.450;2023-01-28T08:08:10;2.70;99.90
21815;DHT22;11069;48.988;8.450;2023-01-28T08:10:36;2.70;99.90
21815;DHT22;11069;48.988;8.450;2023-01-28T08:13:02;2.70;99.90
21815;DHT22;11069;48.988;8.450;2023-01-28T08:15:28;2.70;99.90
21815;DHT22;11069;48.988;8.450;2023-01-28T08:17:55;2.80;99.90
21815;DHT22;11069;48.988;8.450;2023-01-28T08:20:21;2.80;99.90
21815;DHT22;11069;48.988;8.450;2023-01-28T08:22:47;2.80;99.90
21815;DHT22;11069;48.988;8.450;2023-01-28T08:25:13;2.80;99.90
21815;DHT22;11069;48.988;8.450;2023-01-28T08:27:38;2.80;99.90
21815;DHT22;11069;48.988;8.450;2023-01-28T08:30:05;2.80;99.90
21815;DHT22;11069;48.988;8.450;2023-01-28T08:32:31;2.80;99.90
21815;DHT22;11069;48.988;8.450;2023-01-28T08:34:56;2.80;99.90
21815;DHT22;11069;48.988;8.450;2023-01-28T08:37:22;2.80;99.90
21815;DHT22;11069;48.988;8.450;2023-01-28T08:39:48;2.80;99.90
21815;DHT22;11069;48.988;8.450;2023-01-28T08:42:14;2.90;99.90
21815;DHT22;11069;48.988;8.450;2023-01-28T08:44:40;2.90;99.90
21815;DHT22;11069;48.988;8.450;2023-01-28T08:47:05;2.90;99.90
21815;DHT22;11069;48.988;8.450;2023-01-28T08:49:31;3.00;99.90
21815;DHT22;11069;48.988;8.450;2023-01-28T08:51:56;3.00;99.90
21815;DHT22;11069;48.988;8.450;2023-01-28T08:54:22;3.10;99.90
21815;DHT22;11069;48.988;8.450;2023-01-28T08:56:47;3.00;99.90
21815;DHT22;11069;48.988;8.450;2023-01-28T08:59:14;3.00;99.90
21815;DHT22;11069;48.988;8.450;2023-01-28T09:01:39;3.10;99.90
21815;DHT22;11069;48.988;8.450;2023-01-28T09:04:05;3.10;99.90
21815;DHT22;11069;48.988;8.450;2023-01-28T09:06:31;3.10;99.90
21815;DHT22;11069;48.988;8.450;2023-01-28T09:08:58;3.10;99.90
21815;DHT22;11069;48.988;8.450;2023-01-28T09:11:24;3.20;99.90
21815;DHT22;11069;48.988;8.450;2023-01-28T09:13:50;3.20;99.90
21815;DHT22;11069;48.988;8.450;2023-01-28T09:16:15;3.20;99.90
21815;DHT22;11069;48.988;8.450;2023-01-28T09:18:41;3.20;99.90
21815;DHT22;11069;48.988;8.450;2023-01-28T09:21:07;3.30;99.90
21815;DHT22;11069;48.988;8.450;2023-01-28T09:23:36;3.40;99.90
21815;DHT22;11069;48.988;8.450;2023-01-28T09:26:03;3.30;99.90
21815;DHT22;11069;48.988;8.450;2023-01-28T09:28:30;3.40;99.90
21815;DHT22;11069;48.988;8.450;2023-01-28T09:31:07;3.40;99.90
21815;DHT22;11069;48.988;8.450;2023-01-28T09:33:33;3.40;99.90
21815;DHT22;11069;48.988;8.450;2023-01-28T09:36:00;3.30;99.90
21815;DHT22;11069;48.988;8.450;2023-01-28T09:38:26;3.30;99.90
21815;DHT22;11069;48.988;8.450;2023-01-28T09:40:52;3.40;99.90
21815;DHT22;11069;48.988;8.450;2023-01-28T09:46:04;3.30;99.90
21815;DHT22;11069;48.988;8.450;2023-01-28T09:48:40;3.50;99.90
21815;DHT22;11069;48.988;8.450;2023-01-28T09:51:09;3.60;99.90
21815;DHT22;11069;48.988;8.450;2023-01-28T09:53:43;3.70;99.90
21815;DHT22;11069;48.988;8.450;2023-01-28T09:56:15;3.80;99.90
21815;DHT22;11069;48.988;8.450;2023-01-28T09:58:45;3.80;99.90
21815;DHT22;11069;48.988;8.450;2023-01-28T10:09:38;3.90;99.90
21815;DHT22;11069;48.988;8.450;2023-01-28T10:12:12;3.90;99.90
21815;DHT22;11069;48.988;8.450;2023-01-28T10:14:57;3.80;99.90
21815;DHT22;11069;48.988;8.450;2023-01-28T10:17:36;3.90;99.90
21815;DHT22;11069;48.988;8.450;2023-01-28T10:20:12;3.90;99.90
21815;DHT22;11069;48.988;8.450;2023-01-28T10:22:48;3.90;99.90
21815;DHT22;11069;48.988;8.450;2023-01-28T10:25:19;3.90;99.90
21815;DHT22;11069;48.988;8.450;2023-01-28T10:27:46;3.90;99.90
21815;DHT22;11069;48.988;8.450;2023-01-28T10:32:49;3.80;99.90
21815;DHT22;11069;48.988;8.450;2023-01-28T10:35:15;3.80;99.90
21815;DHT22;11069;48.988;8.450;2023-01-28T10:37:41;3.70;99.90
21815;DHT22;11069;48.988;8.450;2023-01-28T10:40:15;3.70;99.90
21815;DHT22;11069;48.988;8.450;2023-01-28T10:42:41;3.70;99.90
21815;DHT22;11069;48.988;8.450;2023-01-28T10:45:22;3.70;99.90
21815;DHT22;11069;48.988;8.450;2023-01-28T10:50:30;3.60;99.90
21815;DHT22;11069;48.988;8.450;2023-01-28T10:52:57;3.60;99.90
21815;DHT22;11069;48.988;8.450;2023-01-28T10:55:26;3.50;99.90
21815;DHT22;11069;48.988;8.450;2023-01-28T10:57:53;3.40;99.90
21815;DHT22;11069;48.988;8.450;2023-01-28T11:02:47;3.40;99.90
21815;DHT22;11069;48.988;8.450;2023-01-28T11:05:20;3.50;99.90
21815;DHT22;11069;48.988;8.450;2023-01-28T11:07:47;3.50;99.90
21815;DHT22;11069;48.988;8.450;2023-01-28T11:12:55;3.50;99.90
21815;DHT22;11069;48.988;8.450;2023-01-28T11:15:24;3.60;99.90
21815;DHT22;11069;48.988;8.450;2023-01-28T11:18:04;3.70;99.90
21815;DHT22;11069;48.988;8.450;2023-01-28T11:20:39;3.70;99.90
21815;DHT22;11069;48.988;8.450;2023-01-28T11:23:05;3.60;99.90
21815;DHT22;11069;48.988;8.450;2023-01-28T11:25:35;3.60;99.90
21815;DHT22;11069;48.988;8.450;2023-01-28T11:28:04;3.70;99.90
21815;DHT22;11069;48.988;8.450;2023-01-28T11:30:34;3.90;99.90
21815;DHT22;11069;48.988;8.450;2023-01-28T11:35:32;3.90;99.90
21815;DHT22;11069;48.988;8.450;2023-01-28T11:37:58;4.00;99.90
21815;DHT22;11069;48.988;8.450;2023-01-28T11:40:25;4.10;99.90
21815;DHT22;11069;48.988;8.450;2023-01-28T11:42:54;4.00;99.90
21815;DHT22;11069;48.988;8.450;2023-01-28T11:45:29;3.90;99.90
21815;DHT22;11069;48.988;8.450;2023-01-28T11:48:12;3.80;99.90
21815;DHT22;11069;48.988;8.450;2023-01-28T12:06:56;3.80;99.90
21815;DHT22;11069;48.988;8.450;2023-01-28T12:09:56;3.90;99.90
21815;DHT22;11069;48.988;8.450;2023-01-28T12:26:50;4.00;99.90
21815;DHT22;11069;48.988;8.450;2023-01-28T12:37:17;4.10;99.90
21815;DHT22;11069;48.988;8.450;2023-01-28T12:42:52;4.10;99.90
21815;DHT22;11069;48.988;8.450;2023-01-28T12:48:38;4.20;99.90
21815;DHT22;11069;48.988;8.450;2023-01-28T12:54:32;4.40;99.90
21815;DHT22;11069;48.988;8.450;2023-01-28T12:57:00;4.50;99.90
21815;DHT22;11069;48.988;8.450;2023-01-28T12:59:35;4.40;99.90
21815;DHT22;11069;48.988;8.450;2023-01-28T13:02:22;4.50;99.90
21815;DHT22;11069;48.988;8.450;2023-01-28T13:05:08;4.40;99.90
21815;DHT22;11069;48.988;8.450;2023-01-28T13:07:58;4.30;99.90
21815;DHT22;11069;48.988;8.450;2023-01-28T13:10:41;4.30;99.90
21815;DHT22;11069;48.988;8.450;2023-01-28T13:13:14;4.20;99.90
21815;DHT22;11069;48.988;8.450;2023-01-28T13:15:43;4.30;99.90
21815;DHT22;11069;48.988;8.450;2023-01-28T13:18:33;4.30;99.90
21815;DHT22;11069;48.988;8.450;2023-01-28T13:24:06;4.30;99.90
21815;DHT22;11069;48.988;8.450;2023-01-28T13:26:43;4.20;99.90
21815;DHT22;11069;48.988;8.450;2023-01-28T13:32:01;4.40;99.90
21815;DHT22;11069;48.988;8.450;2023-01-28T13:34:29;4.30;99.90
21815;DHT22;11069;48.988;8.450;2023-01-28T13:37:02;4.30;99.90
21815;DHT22;11069;48.988;8.450;2023-01-28T13:39:29;4.20;99.90
21815;DHT22;11069;48.988;8.450;2023-01-28T13:42:08;4.30;99.90
21815;DHT22;11069;48.988;8.450;2023-01-28T13:44:36;4.30;99.90
21815;DHT22;11069;48.988;8.450;2023-01-28T13:49:41;4.20;99.90
21815;DHT22;11069;48.988;8.450;2023-01-28T13:52:16;4.20;99.90
21815;DHT22;11069;48.988;8.450;2023-01-28T14:06:17;4.10;99.90
21815;DHT22;11069;48.988;8.450;2023-01-28T14:16:48;4.00;99.90
21815;DHT22;11069;48.988;8.450;2023-01-28T14:19:22;4.10;99.90
21815;DHT22;11069;48.988;8.450;2023-01-28T14:21:52;4.00;99.90
21815;DHT22;11069;48.988;8.450;2023-01-28T14:24:24;4.00;99.90
21815;DHT22;11069;48.988;8.450;2023-01-28T14:27:06;4.00;99.90
21815;DHT22;11069;48.988;8.450;2023-01-28T14:30:19;4.10;99.90
21815;DHT22;11069;48.988;8.450;2023-01-28T14:32:47;4.20;99.90
21815;DHT22;11069;48.988;8.450;2023-01-28T14:35:34;4.20;99.90
21815;DHT22;11069;48.988;8.450;2023-01-28T14:38:06;4.20;99.90
21815;DHT22;11069;48.988;8.450;2023-01-28T14:40:35;4.20;99.90
21815;DHT22;11069;48.988;8.450;2023-01-28T14:43:06;4.10;99.90
21815;DHT22;11069;48.988;8.450;2023-01-28T14:58:37;3.90;99.90
21815;DHT22;11069;48.988;8.450;2023-01-28T15:01:03;3.90;99.90
21815;DHT22;11069;48.988;8.450;2023-01-28T15:03:29;3.90;99.90
21815;DHT22;11069;48.988;8.450;2023-01-28T15:06:13;3.80;99.90
21815;DHT22;11069;48.988;8.450;2023-01-28T15:08:39;3.80;99.90
21815;DHT22;11069;48.988;8.450;2023-01-28T15:11:08;3.70;99.90
21815;DHT22;11069;48.988;8.450;2023-01-28T15:13:46;3.70;99.90
21815;DHT22;11069;48.988;8.450;2023-01-28T15:16:21;3.70;99.90
21815;DHT22;11069;48.988;8.450;2023-01-28T15:18:48;3.70;99.90
21815;DHT22;11069;48.988;8.450;2023-01-28T15:21:22;3.80;99.90
21815;DHT22;11069;48.988;8.450;2023-01-28T15:23:50;3.80;99.90
21815;DHT22;11069;48.988;8.450;2023-01-28T15:26:23;3.80;99.90
21815;DHT22;11069;48.988;8.450;2023-01-28T15:28:51;3.70;99.90
21815;DHT22;11069;48.988;8.450;2023-01-28T15:36:25;3.60;99.90
21815;DHT22;11069;48.988;8.450;2023-01-28T15:38:52;3.50;99.90
21815;DHT22;11069;48.988;8.450;2023-01-28T15:41:19;3.50;99.90
21815;DHT22;11069;48.988;8.450;2023-01-28T15:43:46;3.50;99.90
21815;DHT22;11069;48.988;8.450;2023-01-28T15:46:13;3.40;99.90
21815;DHT22;11069;48.988;8.450;2023-01-28T15:48:43;3.40;99.90
21815;DHT22;11069;48.988;8.450;2023-01-28T15:51:19;3.30;99.90
21815;DHT22;11069;48.988;8.450;2023-01-28T15:53:50;3.30;99.90
21815;DHT22;11069;48.988;8.450;2023-01-28T15:56:24;3.20;99.90
21815;DHT22;11069;48.988;8.450;2023-01-28T15:58:50;3.20;99.90
21815;DHT22;11069;48.988;8.450;2023-01-28T16:01:18;3.20;99.90
21815;DHT22;11069;48.988;8.450;2023-01-28T16:03:45;3.20;99.90
21815;DHT22;11069;48.988;8.450;2023-01-28T16:06:20;3.20;99.90
21815;DHT22;11069;48.988;8.450;2023-01-28T16:08:49;3.10;99.90
21815;DHT22;11069;48.988;8.450;2023-01-28T16:11:31;3.10;99.90
21815;DHT22;11069;48.988;8.450;2023-01-28T16:13:58;3.10;99.90
21815;DHT22;11069;48.988;8.450;2023-01-28T16:16:35;3.10;99.90
21815;DHT22;11069;48.988;8.450;2023-01-28T16:19:04;3.10;99.90
21815;DHT22;11069;48.988;8.450;2023-01-28T16:21:34;3.10;99.90
21815;DHT22;11069;48.988;8.450;2023-01-28T16:24:05;3.10;99.90
21815;DHT22;11069;48.988;8.450;2023-01-28T16:26:35;3.10;99.90
21815;DHT22;11069;48.988;8.450;2023-01-28T16:29:14;3.00;99.90
21815;DHT22;11069;48.988;8.450;2023-01-28T16:31:41;3.00;99.90
21815;DHT22;11069;48.988;8.450;2023-01-28T16:34:09;3.00;99.90
21815;DHT22;11069;48.988;8.450;2023-01-28T16:36:35;3.00;99.90
21815;DHT22;11069;48.988;8.450;2023-01-28T16:39:00;3.00;99.90
21815;DHT22;11069;48.988;8.450;2023-01-28T16:41:28;3.00;99.90
21815;DHT22;11069;48.988;8.450;2023-01-28T16:43:56;2.90;99.90
21815;DHT22;11069;48.988;8.450;2023-01-28T16:46:28;2.90;99.90
21815;DHT22;11069;48.988;8.450;2023-01-28T16:48:54;2.90;99.90
21815;DHT22;11069;48.988;8.450;2023-01-28T16:51:19;2.90;99.90
21815;DHT22;11069;48.988;8.450;2023-01-28T16:53:46;2.90;99.90
21815;DHT22;11069;48.988;8.450;2023-01-28T16:56:18;2.90;99.90
21815;DHT22;11069;48.988;8.450;2023-01-28T16:58:45;2.90;99.90
21815;DHT22;11069;48.988;8.450;2023-01-28T17:01:10;2.90;99.90
21815;DHT22;11069;48.988;8.450;2023-01-28T17:03:37;2.90;99.90
21815;DHT22;11069;48.988;8.450;2023-01-28T17:06:03;2.90;99.90
21815;DHT22;11069;48.988;8.450;2023-01-28T17:08:28;2.80;99.90
21815;DHT22;11069;48.988;8.450;2023-01-28T17:10:55;2.80;99.90
21815;DHT22;11069;48.988;8.450;2023-01-28T17:13:20;2.80;99.90
21815;DHT22;11069;48.988;8.450;2023-01-28T17:15:46;2.70;99.90
21815;DHT22;11069;48.988;8.450;2023-01-28T17:18:12;2.70;99.90
21815;DHT22;11069;48.988;8.450;2023-01-28T17:20:38;2.70;99.90
21815;DHT22;11069;48.988;8.450;2023-01-28T17:23:08;2.70;99.90
21815;DHT22;11069;48.988;8.450;2023-01-28T17:25:37;2.70;99.90
21815;DHT22;11069;48.988;8.450;2023-01-28T17:28:04;2.80;99.90
21815;DHT22;11069;48.988;8.450;2023-01-28T17:30:29;2.80;99.90
21815;DHT22;11069;48.988;8.450;2023-01-28T17:32:55;2.70;99.90
21815;DHT22;11069;48.988;8.450;2023-01-28T17:35:20;2.70;99.90
21815;DHT22;11069;48.988;8.450;2023-01-28T17:37:46;2.70;99.90
21815;DHT22;11069;48.988;8.450;2023-01-28T17:40:12;2.70;99.90
21815;DHT22;11069;48.988;8.450;2023-01-28T17:42:38;2.70;99.90
21815;DHT22;11069;48.988;8.450;2023-01-28T17:45:04;2.70;99.90
21815;DHT22;11069;48.988;8.450;2023-01-28T17:47:30;2.60;99.90
21815;DHT22;11069;48.988;8.450;2023-01-28T17:49:56;2.60;99.90
21815;DHT22;11069;48.988;8.450;2023-01-28T17:52:22;2.60;99.90
21815;DHT22;11069;48.988;8.450;2023-01-28T17:54:48;2.60;99.90
21815;DHT22;11069;48.988;8.450;2023-01-28T17:57:13;2.60;99.90
21815;DHT22;11069;48.988;8.450;2023-01-28T17:59:39;2.60;99.90
21815;DHT22;11069;48.988;8.450;2023-01-28T18:02:09;2.60;99.90
21815;DHT22;11069;48.988;8.450;2023-01-28T18:04:39;2.60;99.90
21815;DHT22;11069;48.988;8.450;2023-01-28T18:07:06;2.60;99.90
21815;DHT22;11069;48.988;8.450;2023-01-28T18:09:36;2.60;99.90
21815;DHT22;11069;48.988;8.450;2023-01-28T18:12:02;2.50;99.90
21815;DHT22;11069;48.988;8.450;2023-01-28T18:14:28;2.50;99.90
21815;DHT22;11069;48.988;8.450;2023-01-28T18:16:54;2.50;99.90
21815;DHT22;11069;48.988;8.450;2023-01-28T18:19:19;2.50;99.90
21815;DHT22;11069;48.988;8.450;2023-01-28T18:21:45;2.50;99.90
21815;DHT22;11069;48.988;8.450;2023-01-28T18:24:10;2.50;99.90
21815;DHT22;11069;48.988;8.450;2023-01-28T18:26:36;2.50;99.90
21815;DHT22;11069;48.988;8.450;2023-01-28T18:29:02;2.60;99.90